createdAt,value
2018-05-10T00:00:21.045Z,0.00
2018-05-10T00:01:21.027Z,0.00
2018-05-10T00:02:21.001Z,0.00
2018-05-10T00:03:20.980Z,0.00
2018-05-10T00:04:20.957Z,0.00
2018-05-10T00:05:20.935Z,0.00
2018-05-10T00:06:20.914Z,0.00
2018-05-10T00:07:20.891Z,0.00
2018-05-10T00:08:20.870Z,0.00
2018-05-10T00:09:20.848Z,0.00
2018-05-10T00:10:20.832Z,0.00
2018-05-10T00:11:20.804Z,0.00
2018-05-10T00:12:20.781Z,0.00
2018-05-10T00:13:20.759Z,0.00
2018-05-10T00:14:20.737Z,0.00
2018-05-10T00:15:20.715Z,0.00
2018-05-10T00:16:20.693Z,0.00
2018-05-10T00:17:20.671Z,0.00
2018-05-10T00:18:20.649Z,0.00
2018-05-10T00:19:20.627Z,0.00
2018-05-10T00:20:20.605Z,0.00
2018-05-10T00:21:20.582Z,0.00
2018-05-10T00:22:20.567Z,0.00
2018-05-10T00:23:20.539Z,0.00
2018-05-10T00:24:20.605Z,0.00
2018-05-10T00:25:20.497Z,0.00
2018-05-10T00:26:20.474Z,0.00
2018-05-10T00:27:20.451Z,0.00
2018-05-10T00:28:20.427Z,0.00
2018-05-10T00:29:20.405Z,0.00
2018-05-10T00:30:20.392Z,0.00
2018-05-10T00:31:20.361Z,0.00
2018-05-10T00:32:20.339Z,0.00
2018-05-10T00:33:20.320Z,0.00
2018-05-10T00:34:20.295Z,0.00
2018-05-10T00:35:20.273Z,0.00
2018-05-10T00:36:20.250Z,0.00
2018-05-10T00:37:20.229Z,0.00
2018-05-10T00:38:20.206Z,0.00
2018-05-10T00:39:20.189Z,0.00
2018-05-10T00:40:20.168Z,0.00
2018-05-10T00:41:20.140Z,0.00
2018-05-10T00:42:20.118Z,0.00
2018-05-10T00:43:20.099Z,0.00
2018-05-10T00:44:20.073Z,0.00
2018-05-10T00:45:20.052Z,0.00
2018-05-10T00:46:20.029Z,0.00
2018-05-10T00:47:20.007Z,0.00
2018-05-10T00:48:19.986Z,0.00
2018-05-10T00:49:19.963Z,0.00
2018-05-10T00:50:19.942Z,0.00
2018-05-10T00:51:19.918Z,0.00
2018-05-10T00:52:19.895Z,0.00
2018-05-10T00:53:19.873Z,0.00
2018-05-10T00:54:19.851Z,0.00
2018-05-10T00:55:19.829Z,0.00
2018-05-10T00:56:19.811Z,0.00
2018-05-10T00:57:19.784Z,0.00
2018-05-10T00:58:19.964Z,0.00
2018-05-10T00:59:19.739Z,0.00
2018-05-10T01:00:19.718Z,0.00
2018-05-10T01:01:19.701Z,0.00
2018-05-10T01:02:19.672Z,0.00
2018-05-10T01:03:19.652Z,0.00
2018-05-10T01:04:19.628Z,0.00
2018-05-10T01:05:19.605Z,0.00
2018-05-10T01:06:19.583Z,0.00
2018-05-10T01:07:19.560Z,0.00
2018-05-10T01:08:19.545Z,0.00
2018-05-10T01:09:19.515Z,0.00
2018-05-10T01:10:19.496Z,0.00
2018-05-10T01:11:19.471Z,0.00
2018-05-10T01:12:19.452Z,0.00
2018-05-10T01:13:19.425Z,0.00
2018-05-10T01:14:19.408Z,0.00
2018-05-10T01:15:19.408Z,0.00
2018-05-10T01:16:19.359Z,0.00
2018-05-10T01:17:19.336Z,0.00
2018-05-10T01:18:19.313Z,0.00
2018-05-10T01:19:19.298Z,0.00
2018-05-10T01:20:19.267Z,0.00
2018-05-10T01:21:19.246Z,0.00
2018-05-10T01:22:19.223Z,0.00
2018-05-10T01:23:19.210Z,0.00
2018-05-10T01:24:19.180Z,0.00
2018-05-10T01:25:19.155Z,0.00
2018-05-10T01:26:19.133Z,0.00
2018-05-10T01:27:19.115Z,0.00
2018-05-10T01:28:19.091Z,0.00
2018-05-10T01:29:19.067Z,0.00
2018-05-10T01:30:19.043Z,0.00
2018-05-10T01:31:19.021Z,0.00
2018-05-10T01:32:19.000Z,0.00
2018-05-10T01:33:18.977Z,0.00
2018-05-10T01:34:18.958Z,0.00
2018-05-10T01:35:18.930Z,0.00
2018-05-10T01:36:18.907Z,0.00
2018-05-10T01:37:18.887Z,0.00
2018-05-10T01:38:18.862Z,0.00
2018-05-10T01:39:18.846Z,0.00
2018-05-10T01:40:18.828Z,0.00
2018-05-10T01:41:18.794Z,0.00
2018-05-10T01:42:18.772Z,0.00
2018-05-10T01:43:18.750Z,0.00
2018-05-10T01:44:18.726Z,0.00
2018-05-10T01:45:18.706Z,0.00
2018-05-10T01:46:18.684Z,0.00
2018-05-10T01:47:18.659Z,0.00
2018-05-10T01:48:18.640Z,0.00
2018-05-10T01:49:18.614Z,0.00
2018-05-10T01:50:18.590Z,0.00
2018-05-10T01:51:18.568Z,0.00
2018-05-10T01:52:18.544Z,0.00
2018-05-10T01:53:18.522Z,0.00
2018-05-10T01:54:18.499Z,0.00
2018-05-10T01:55:18.477Z,0.00
2018-05-10T01:56:18.453Z,0.00
2018-05-10T01:57:18.433Z,0.00
2018-05-10T01:58:18.409Z,0.00
2018-05-10T01:59:18.386Z,0.00
2018-05-10T02:00:18.363Z,0.00
2018-05-10T02:01:18.341Z,0.00
2018-05-10T02:02:18.318Z,0.00
2018-05-10T02:03:18.295Z,0.00
2018-05-10T02:04:18.272Z,0.00
2018-05-10T02:05:18.249Z,0.00
2018-05-10T02:06:18.227Z,0.00
2018-05-10T02:07:18.204Z,0.00
2018-05-10T02:08:18.181Z,0.00
2018-05-10T02:09:18.159Z,0.00
2018-05-10T02:10:18.136Z,0.00
2018-05-10T02:11:18.119Z,0.00
2018-05-10T02:12:18.092Z,0.00
2018-05-10T02:13:18.068Z,0.00
2018-05-10T02:14:18.046Z,0.00
2018-05-10T02:15:18.026Z,0.00
2018-05-10T02:16:18.004Z,0.00
2018-05-10T02:17:17.977Z,0.00
2018-05-10T02:18:17.957Z,0.00
2018-05-10T02:19:17.933Z,0.00
2018-05-10T02:20:17.913Z,0.00
2018-05-10T02:21:17.891Z,0.00
2018-05-10T02:22:17.864Z,0.00
2018-05-10T02:23:17.841Z,0.00
2018-05-10T02:24:17.819Z,0.00
2018-05-10T02:25:17.796Z,0.00
2018-05-10T02:26:17.776Z,0.00
2018-05-10T02:27:17.751Z,0.00
2018-05-10T02:28:17.728Z,0.00
2018-05-10T02:29:17.710Z,0.00
2018-05-10T02:30:17.683Z,0.00
2018-05-10T02:31:17.661Z,0.00
2018-05-10T02:32:17.637Z,0.00
2018-05-10T02:33:17.622Z,0.00
2018-05-10T02:34:17.594Z,0.00
2018-05-10T02:35:17.570Z,0.00
2018-05-10T02:36:17.548Z,0.00
2018-05-10T02:37:17.526Z,0.00
2018-05-10T02:38:17.503Z,0.00
2018-05-10T02:39:17.480Z,0.00
2018-05-10T02:40:17.461Z,0.00
2018-05-10T02:41:17.434Z,0.00
2018-05-10T02:42:17.415Z,0.00
2018-05-10T02:43:17.389Z,0.00
2018-05-10T02:44:17.375Z,0.00
2018-05-10T02:45:17.347Z,0.00
2018-05-10T02:46:17.331Z,0.00
2018-05-10T02:47:17.301Z,0.00
2018-05-10T02:48:17.276Z,0.00
2018-05-10T02:49:17.252Z,0.00
2018-05-10T02:50:17.232Z,0.00
2018-05-10T02:51:17.208Z,0.00
2018-05-10T02:52:17.184Z,0.00
2018-05-10T02:53:17.166Z,0.00
2018-05-10T02:54:17.138Z,0.00
2018-05-10T02:55:17.117Z,0.00
2018-05-10T02:56:17.093Z,0.00
2018-05-10T02:57:17.070Z,0.00
2018-05-10T02:58:17.061Z,0.00
2018-05-10T02:59:17.037Z,0.00
2018-05-10T03:00:17.002Z,0.00
2018-05-10T03:01:16.979Z,0.00
2018-05-10T03:02:16.960Z,0.00
2018-05-10T03:03:17.284Z,0.00
2018-05-10T03:04:16.911Z,0.00
2018-05-10T03:05:16.890Z,0.00
2018-05-10T03:06:16.865Z,0.00
2018-05-10T03:07:16.843Z,0.00
2018-05-10T03:08:16.828Z,0.00
2018-05-10T03:09:16.797Z,0.00
2018-05-10T03:10:16.774Z,0.00
2018-05-10T03:11:16.751Z,5.63
2018-05-10T03:12:16.729Z,5.63
2018-05-10T03:13:16.799Z,5.63
2018-05-10T03:14:16.682Z,5.63
2018-05-10T03:15:16.734Z,5.63
2018-05-10T03:16:16.636Z,5.63
2018-05-10T03:17:16.622Z,5.63
2018-05-10T03:18:16.621Z,5.63
2018-05-10T03:19:16.568Z,11.25
2018-05-10T03:20:16.544Z,11.25
2018-05-10T03:21:16.525Z,11.25
2018-05-10T03:22:16.499Z,11.25
2018-05-10T03:23:16.477Z,16.88
2018-05-10T03:24:16.453Z,16.88
2018-05-10T03:25:16.434Z,16.88
2018-05-10T03:26:16.410Z,16.88
2018-05-10T03:27:16.385Z,22.50
2018-05-10T03:28:16.362Z,22.50
2018-05-10T03:29:16.338Z,22.50
2018-05-10T03:30:16.318Z,28.13
2018-05-10T03:31:16.296Z,28.13
2018-05-10T03:32:16.270Z,28.13
2018-05-10T03:33:16.262Z,33.75
2018-05-10T03:34:16.225Z,33.75
2018-05-10T03:35:16.203Z,39.38
2018-05-10T03:36:16.180Z,39.38
2018-05-10T03:37:16.156Z,45.00
2018-05-10T03:38:16.137Z,45.00
2018-05-10T03:39:16.110Z,50.63
2018-05-10T03:40:16.087Z,50.63
2018-05-10T03:41:16.064Z,56.25
2018-05-10T03:42:16.042Z,56.25
2018-05-10T03:43:16.022Z,61.88
2018-05-10T03:44:16.027Z,61.88
2018-05-10T03:45:15.976Z,67.50
2018-05-10T03:46:15.950Z,73.13
2018-05-10T03:47:15.932Z,73.13
2018-05-10T03:48:15.903Z,78.75
2018-05-10T03:49:15.881Z,78.75
2018-05-10T03:50:15.858Z,84.38
2018-05-10T03:51:15.835Z,84.38
2018-05-10T03:52:15.814Z,90.00
2018-05-10T03:53:15.788Z,95.63
2018-05-10T03:54:15.766Z,95.63
2018-05-10T03:55:15.746Z,101.25
2018-05-10T03:56:15.719Z,106.88
2018-05-10T03:57:15.697Z,106.88
2018-05-10T03:58:15.678Z,112.50
2018-05-10T03:59:15.652Z,118.13
2018-05-10T04:00:15.636Z,118.13
2018-05-10T04:01:15.807Z,123.75
2018-05-10T04:02:15.785Z,129.38
2018-05-10T04:03:15.562Z,129.38
2018-05-10T04:04:15.541Z,140.63
2018-05-10T04:05:15.519Z,151.88
2018-05-10T04:06:15.499Z,163.13
2018-05-10T04:07:15.468Z,174.38
2018-05-10T04:08:15.444Z,180.00
2018-05-10T04:09:15.421Z,196.88
2018-05-10T04:10:15.399Z,208.13
2018-05-10T04:11:15.391Z,213.75
2018-05-10T04:12:15.363Z,230.63
2018-05-10T04:13:15.337Z,236.25
2018-05-10T04:14:15.308Z,247.50
2018-05-10T04:15:15.285Z,258.75
2018-05-10T04:16:15.265Z,270.00
2018-05-10T04:17:15.239Z,275.63
2018-05-10T04:18:15.217Z,275.63
2018-05-10T04:19:15.195Z,270.00
2018-05-10T04:20:15.171Z,247.50
2018-05-10T04:21:15.153Z,253.13
2018-05-10T04:22:15.335Z,270.00
2018-05-10T04:23:15.105Z,292.50
2018-05-10T04:24:15.082Z,298.13
2018-05-10T04:25:15.062Z,309.38
2018-05-10T04:26:15.040Z,320.63
2018-05-10T04:27:15.015Z,331.88
2018-05-10T04:28:14.995Z,337.50
2018-05-10T04:29:14.972Z,354.38
2018-05-10T04:30:14.948Z,365.63
2018-05-10T04:31:14.926Z,360.00
2018-05-10T04:32:14.903Z,365.63
2018-05-10T04:33:14.888Z,371.25
2018-05-10T04:34:14.860Z,376.88
2018-05-10T04:35:14.844Z,382.50
2018-05-10T04:36:14.815Z,388.13
2018-05-10T04:37:14.794Z,388.13
2018-05-10T04:38:14.773Z,399.38
2018-05-10T04:39:14.757Z,393.75
2018-05-10T04:40:14.728Z,416.25
2018-05-10T04:41:14.706Z,427.50
2018-05-10T04:42:14.738Z,438.75
2018-05-10T04:43:14.663Z,450.00
2018-05-10T04:44:14.640Z,466.88
2018-05-10T04:45:14.619Z,483.75
2018-05-10T04:46:14.801Z,517.50
2018-05-10T04:47:14.581Z,545.63
2018-05-10T04:48:14.554Z,562.50
2018-05-10T04:49:14.533Z,568.13
2018-05-10T04:50:14.517Z,568.13
2018-05-10T04:51:14.492Z,540.00
2018-05-10T04:52:14.474Z,540.00
2018-05-10T04:53:14.449Z,551.25
2018-05-10T04:54:14.443Z,551.25
2018-05-10T04:55:14.405Z,545.63
2018-05-10T04:56:14.383Z,556.88
2018-05-10T04:57:14.363Z,573.75
2018-05-10T04:58:14.342Z,573.75
2018-05-10T04:59:14.322Z,590.63
2018-05-10T05:00:14.302Z,596.25
2018-05-10T05:01:14.279Z,585.00
2018-05-10T05:02:14.259Z,596.25
2018-05-10T05:03:14.238Z,601.88
2018-05-10T05:04:14.216Z,596.25
2018-05-10T05:05:14.196Z,585.00
2018-05-10T05:06:14.176Z,450.00
2018-05-10T05:07:14.157Z,466.88
2018-05-10T05:08:14.136Z,540.00
2018-05-10T05:09:14.122Z,450.00
2018-05-10T05:10:14.093Z,478.13
2018-05-10T05:11:14.073Z,438.75
2018-05-10T05:12:14.059Z,455.63
2018-05-10T05:13:14.032Z,483.75
2018-05-10T05:14:14.014Z,511.88
2018-05-10T05:15:13.997Z,534.38
2018-05-10T05:16:13.969Z,551.25
2018-05-10T05:17:13.949Z,562.50
2018-05-10T05:18:13.930Z,568.13
2018-05-10T05:19:13.908Z,579.38
2018-05-10T05:20:13.885Z,652.50
2018-05-10T05:21:13.865Z,568.13
2018-05-10T05:22:13.851Z,556.88
2018-05-10T05:23:13.824Z,551.25
2018-05-10T05:24:13.807Z,562.50
2018-05-10T05:25:13.783Z,573.75
2018-05-10T05:26:13.761Z,585.00
2018-05-10T05:27:13.740Z,585.00
2018-05-10T05:28:13.719Z,568.13
2018-05-10T05:29:13.702Z,568.13
2018-05-10T05:30:13.678Z,579.38
2018-05-10T05:31:13.658Z,601.88
2018-05-10T05:32:13.640Z,635.63
2018-05-10T05:33:13.615Z,1012.50
2018-05-10T05:34:13.595Z,928.13
2018-05-10T05:35:13.578Z,945.00
2018-05-10T05:36:13.552Z,849.38
2018-05-10T05:37:13.534Z,871.88
2018-05-10T05:38:13.511Z,990.00
2018-05-10T05:39:13.491Z,883.13
2018-05-10T05:40:13.470Z,826.88
2018-05-10T05:41:13.549Z,804.38
2018-05-10T05:42:13.431Z,900.00
2018-05-10T05:43:13.471Z,956.25
2018-05-10T05:44:13.387Z,933.75
2018-05-10T05:45:13.368Z,855.00
2018-05-10T05:46:13.348Z,1001.25
2018-05-10T05:47:13.328Z,1181.25
2018-05-10T05:48:13.309Z,1406.25
2018-05-10T05:49:13.292Z,1518.75
2018-05-10T05:50:13.270Z,1653.75
2018-05-10T05:51:13.336Z,1676.25
2018-05-10T05:52:13.229Z,1676.25
2018-05-10T05:53:13.210Z,1676.25
2018-05-10T05:54:13.188Z,1299.38
2018-05-10T05:55:13.171Z,1113.75
2018-05-10T05:56:13.155Z,956.25
2018-05-10T05:57:13.139Z,905.63
2018-05-10T05:58:13.113Z,894.38
2018-05-10T05:59:13.097Z,990.00
2018-05-10T06:00:13.075Z,1001.25
2018-05-10T06:01:13.057Z,1715.63
2018-05-10T06:02:13.038Z,1108.13
2018-05-10T06:03:13.021Z,1091.25
2018-05-10T06:04:13.047Z,1074.38
2018-05-10T06:05:12.982Z,1057.50
2018-05-10T06:06:12.964Z,1051.88
2018-05-10T06:07:12.945Z,1051.88
2018-05-10T06:08:12.930Z,1102.50
2018-05-10T06:09:12.907Z,1051.88
2018-05-10T06:10:12.890Z,978.75
2018-05-10T06:11:12.874Z,956.25
2018-05-10T06:12:12.852Z,950.63
2018-05-10T06:13:12.850Z,933.75
2018-05-10T06:14:12.817Z,911.25
2018-05-10T06:15:12.797Z,905.63
2018-05-10T06:16:12.828Z,900.00
2018-05-10T06:17:12.759Z,888.75
2018-05-10T06:18:12.752Z,871.88
2018-05-10T06:19:12.722Z,860.63
2018-05-10T06:20:12.706Z,855.00
2018-05-10T06:21:12.685Z,877.50
2018-05-10T06:22:12.665Z,871.88
2018-05-10T06:23:12.647Z,888.75
2018-05-10T06:24:12.627Z,922.50
2018-05-10T06:25:12.633Z,956.25
2018-05-10T06:26:12.590Z,995.63
2018-05-10T06:27:12.571Z,1575.00
2018-05-10T06:28:12.551Z,1552.50
2018-05-10T06:29:12.533Z,1890.00
2018-05-10T06:30:12.515Z,2148.75
2018-05-10T06:31:12.495Z,2210.63
2018-05-10T06:32:12.480Z,2278.13
2018-05-10T06:33:12.457Z,2238.75
2018-05-10T06:34:12.441Z,2193.75
2018-05-10T06:35:12.421Z,2098.13
2018-05-10T06:36:12.403Z,2030.63
2018-05-10T06:37:12.386Z,1940.63
2018-05-10T06:38:12.372Z,1856.25
2018-05-10T06:39:12.352Z,1783.13
2018-05-10T06:40:12.334Z,1693.13
2018-05-10T06:41:12.318Z,1411.88
2018-05-10T06:42:12.304Z,1395.00
2018-05-10T06:43:12.293Z,1141.88
2018-05-10T06:44:12.269Z,1141.88
2018-05-10T06:45:12.253Z,1496.25
2018-05-10T06:46:12.237Z,1935.00
2018-05-10T06:47:12.224Z,2553.75
2018-05-10T06:48:12.206Z,2075.63
2018-05-10T06:49:12.188Z,2784.38
2018-05-10T06:50:12.172Z,2784.38
2018-05-10T06:51:12.163Z,2756.25
2018-05-10T06:52:12.140Z,2666.25
2018-05-10T06:53:12.332Z,2649.38
2018-05-10T06:54:12.314Z,2396.25
2018-05-10T06:55:12.096Z,2542.50
2018-05-10T06:56:12.084Z,2508.75
2018-05-10T06:57:12.063Z,2435.63
2018-05-10T06:58:12.049Z,1659.38
2018-05-10T06:59:12.038Z,1445.63
2018-05-10T07:00:12.019Z,1434.38
2018-05-10T07:01:12.005Z,1456.88
2018-05-10T07:02:11.990Z,1507.50
2018-05-10T07:03:11.974Z,1620.00
2018-05-10T07:04:11.958Z,1620.00
2018-05-10T07:05:11.944Z,1597.50
2018-05-10T07:06:11.935Z,1597.50
2018-05-10T07:07:11.920Z,1603.13
2018-05-10T07:08:11.900Z,1608.75
2018-05-10T07:09:11.883Z,1631.25
2018-05-10T07:10:11.868Z,1715.63
2018-05-10T07:11:11.852Z,1828.13
2018-05-10T07:12:11.837Z,1805.63
2018-05-10T07:13:11.823Z,1833.75
2018-05-10T07:14:11.813Z,1794.38
2018-05-10T07:15:11.794Z,1833.75
2018-05-10T07:16:11.777Z,2700.00
2018-05-10T07:17:11.759Z,2092.50
2018-05-10T07:18:11.745Z,2863.13
2018-05-10T07:19:11.736Z,2081.25
2018-05-10T07:20:11.713Z,2081.25
2018-05-10T07:21:11.701Z,2379.38
2018-05-10T07:22:11.682Z,2047.50
2018-05-10T07:23:11.675Z,2103.75
2018-05-10T07:24:11.652Z,1845.00
2018-05-10T07:25:11.741Z,1732.50
2018-05-10T07:26:11.623Z,1726.88
2018-05-10T07:27:11.608Z,1777.50
2018-05-10T07:28:11.595Z,1906.88
2018-05-10T07:29:11.583Z,2289.38
2018-05-10T07:30:11.562Z,2373.75
2018-05-10T07:31:11.557Z,2385.00
2018-05-10T07:32:11.534Z,2340.00
2018-05-10T07:33:11.518Z,2559.38
2018-05-10T07:34:11.507Z,2525.63
2018-05-10T07:35:11.488Z,3470.63
2018-05-10T07:36:11.472Z,3166.88
2018-05-10T07:37:11.458Z,2964.38
2018-05-10T07:38:11.649Z,3200.63
2018-05-10T07:39:11.633Z,3200.63
2018-05-10T07:40:11.416Z,2497.50
2018-05-10T07:41:11.405Z,2553.75
2018-05-10T07:42:11.493Z,1996.88
2018-05-10T07:43:11.376Z,2565.00
2018-05-10T07:44:11.363Z,2700.00
2018-05-10T07:45:11.349Z,2992.50
2018-05-10T07:46:11.340Z,2621.25
2018-05-10T07:47:11.326Z,2458.13
2018-05-10T07:48:11.312Z,2469.38
2018-05-10T07:49:11.296Z,2216.25
2018-05-10T07:50:11.283Z,2182.50
2018-05-10T07:51:11.270Z,2356.88
2018-05-10T07:52:11.262Z,2199.38
2018-05-10T07:53:11.316Z,2036.25
2018-05-10T07:54:11.231Z,1923.75
2018-05-10T07:55:11.219Z,1929.38
2018-05-10T07:56:11.204Z,2064.38
2018-05-10T07:57:11.191Z,2008.13
2018-05-10T07:58:11.182Z,1951.88
2018-05-10T07:59:11.166Z,1918.13
2018-05-10T08:00:11.150Z,1901.25
2018-05-10T08:01:11.137Z,1890.00
2018-05-10T08:02:11.215Z,1884.38
2018-05-10T08:03:11.111Z,1918.13
2018-05-10T08:04:11.109Z,2008.13
2018-05-10T08:05:11.083Z,2058.75
2018-05-10T08:06:11.069Z,2199.38
2018-05-10T08:07:11.060Z,2165.63
2018-05-10T08:08:11.044Z,2289.38
2018-05-10T08:09:11.036Z,3493.13
2018-05-10T08:10:11.091Z,2806.88
2018-05-10T08:11:11.000Z,3251.25
2018-05-10T08:12:10.985Z,3054.38
2018-05-10T08:13:10.971Z,3555.00
2018-05-10T08:14:10.958Z,3414.38
2018-05-10T08:15:10.945Z,2733.75
2018-05-10T08:16:10.931Z,3369.38
2018-05-10T08:17:11.007Z,2323.13
2018-05-10T08:18:10.909Z,2216.25
2018-05-10T08:19:10.893Z,2711.25
2018-05-10T08:20:10.880Z,1850.63
2018-05-10T08:21:10.868Z,1766.25
2018-05-10T08:22:10.860Z,1693.13
2018-05-10T08:23:10.843Z,1653.75
2018-05-10T08:24:10.833Z,1631.25
2018-05-10T08:25:10.818Z,1625.63
2018-05-10T08:26:10.804Z,1648.13
2018-05-10T08:27:10.791Z,1698.75
2018-05-10T08:28:10.776Z,1743.75
2018-05-10T08:29:10.764Z,1811.25
2018-05-10T08:30:10.767Z,1845.00
2018-05-10T08:31:10.737Z,1873.13
2018-05-10T08:32:10.724Z,1918.13
2018-05-10T08:33:10.710Z,1985.63
2018-05-10T08:34:10.697Z,2413.13
2018-05-10T08:35:10.682Z,1996.88
2018-05-10T08:36:10.667Z,1996.88
2018-05-10T08:37:10.659Z,2176.88
2018-05-10T08:38:10.641Z,2154.38
2018-05-10T08:39:10.627Z,2115.00
2018-05-10T08:40:10.616Z,2317.50
2018-05-10T08:41:10.598Z,2475.00
2018-05-10T08:42:10.584Z,2154.38
2018-05-10T08:43:10.571Z,2148.75
2018-05-10T08:44:10.556Z,1901.25
2018-05-10T08:45:10.554Z,1743.75
2018-05-10T08:46:10.529Z,2053.13
2018-05-10T08:47:10.519Z,2683.13
2018-05-10T08:48:10.502Z,1873.13
2018-05-10T08:49:10.489Z,1771.88
2018-05-10T08:50:10.474Z,1811.25
2018-05-10T08:51:10.469Z,2019.38
2018-05-10T08:52:10.451Z,1816.88
2018-05-10T08:53:10.434Z,1726.88
2018-05-10T08:54:10.420Z,2199.38
2018-05-10T08:55:10.408Z,3200.63
2018-05-10T08:56:10.393Z,2390.63
2018-05-10T08:57:10.379Z,3133.13
2018-05-10T08:58:10.370Z,2424.38
2018-05-10T08:59:10.352Z,2289.38
2018-05-10T09:00:10.338Z,2885.63
2018-05-10T09:01:10.331Z,3667.50
2018-05-10T09:02:10.312Z,2390.63
2018-05-10T09:03:10.299Z,2053.13
2018-05-10T09:04:10.286Z,1828.13
2018-05-10T09:05:10.279Z,1704.38
2018-05-10T09:06:10.264Z,1603.13
2018-05-10T09:07:10.247Z,1535.63
2018-05-10T09:08:10.234Z,1462.50
2018-05-10T09:09:10.221Z,1411.88
2018-05-10T09:10:10.210Z,1355.63
2018-05-10T09:11:10.198Z,1310.63
2018-05-10T09:12:10.181Z,1271.25
2018-05-10T09:13:10.167Z,1243.13
2018-05-10T09:14:10.158Z,1231.88
2018-05-10T09:15:10.142Z,1215.00
2018-05-10T09:16:10.127Z,1209.38
2018-05-10T09:17:10.111Z,1220.63
2018-05-10T09:18:10.097Z,1260.00
2018-05-10T09:19:10.083Z,1293.75
2018-05-10T09:20:10.072Z,1350.00
2018-05-10T09:21:10.055Z,1411.88
2018-05-10T09:22:10.039Z,1468.13
2018-05-10T09:23:10.025Z,1496.25
2018-05-10T09:24:10.009Z,1530.00
2018-05-10T09:25:09.994Z,1569.38
2018-05-10T09:26:09.980Z,1597.50
2018-05-10T09:27:09.966Z,1653.75
2018-05-10T09:28:10.101Z,1681.88
2018-05-10T09:29:09.936Z,1732.50
2018-05-10T09:30:09.924Z,1783.13
2018-05-10T09:31:09.907Z,1861.88
2018-05-10T09:32:09.890Z,1957.50
2018-05-10T09:33:09.875Z,2188.13
2018-05-10T09:34:09.860Z,2188.13
2018-05-10T09:35:09.846Z,2109.38
2018-05-10T09:36:09.830Z,2120.63
2018-05-10T09:37:09.817Z,2148.75
2018-05-10T09:38:09.804Z,2171.25
2018-05-10T09:39:09.851Z,2283.75
2018-05-10T09:40:10.573Z,2441.25
2018-05-10T09:41:09.758Z,2604.38
2018-05-10T09:42:09.744Z,3886.88
2018-05-10T09:43:09.733Z,4584.38
2018-05-10T09:44:09.717Z,3566.25
2018-05-10T09:45:09.702Z,4213.13
2018-05-10T09:46:09.746Z,4297.50
2018-05-10T09:47:09.676Z,2767.50
2018-05-10T09:48:09.663Z,2688.75
2018-05-10T09:49:09.658Z,2638.13
2018-05-10T09:50:09.643Z,2638.13
2018-05-10T09:51:09.627Z,2722.50
2018-05-10T09:52:09.613Z,2520.00
2018-05-10T09:53:09.608Z,3436.88
2018-05-10T09:54:09.601Z,4668.75
2018-05-10T09:55:09.577Z,4663.13
2018-05-10T09:56:09.564Z,4584.38
2018-05-10T09:57:09.554Z,4522.50
2018-05-10T09:58:09.542Z,4483.13
2018-05-10T09:59:09.532Z,4353.75
2018-05-10T10:00:09.520Z,4185.00
2018-05-10T10:01:09.512Z,4533.75
2018-05-10T10:02:09.500Z,3470.63
2018-05-10T10:03:09.490Z,2188.13
2018-05-10T10:04:09.480Z,2244.38
2018-05-10T10:05:09.472Z,2171.25
2018-05-10T10:06:09.516Z,1856.25
2018-05-10T10:07:09.451Z,1867.50
2018-05-10T10:08:09.439Z,2075.63
2018-05-10T10:09:09.429Z,1951.88
2018-05-10T10:10:09.419Z,2182.50
2018-05-10T10:11:09.409Z,2413.13
2018-05-10T10:12:09.399Z,2092.50
2018-05-10T10:13:09.387Z,2137.50
2018-05-10T10:14:09.376Z,4550.63
2018-05-10T10:15:09.367Z,2171.25
2018-05-10T10:16:09.353Z,2098.13
2018-05-10T10:17:09.342Z,2317.50
2018-05-10T10:18:09.331Z,2441.25
2018-05-10T10:19:09.323Z,2671.88
2018-05-10T10:20:09.309Z,3133.13
2018-05-10T10:21:09.296Z,2778.75
2018-05-10T10:22:09.292Z,4758.75
2018-05-10T10:23:09.275Z,4528.13
2018-05-10T10:24:09.261Z,4280.63
2018-05-10T10:25:09.290Z,4342.50
2018-05-10T10:26:09.246Z,4275.00
2018-05-10T10:27:09.231Z,4196.25
2018-05-10T10:28:09.220Z,4269.38
2018-05-10T10:29:09.207Z,2778.75
2018-05-10T10:30:09.196Z,4066.88
2018-05-10T10:31:09.188Z,4213.13
2018-05-10T10:32:09.175Z,4128.75
2018-05-10T10:33:09.166Z,3976.88
2018-05-10T10:34:09.166Z,4033.13
2018-05-10T10:35:09.148Z,3521.25
2018-05-10T10:36:09.136Z,3695.63
2018-05-10T10:37:09.127Z,4303.13
2018-05-10T10:38:09.148Z,4370.63
2018-05-10T10:39:09.109Z,4303.13
2018-05-10T10:40:09.104Z,4483.13
2018-05-10T10:41:09.090Z,4595.63
2018-05-10T10:42:09.082Z,3690.00
2018-05-10T10:43:09.072Z,3903.75
2018-05-10T10:44:10.265Z,4005.00
2018-05-10T10:45:09.057Z,3262.50
2018-05-10T10:46:09.052Z,3836.25
2018-05-10T10:47:09.038Z,4983.75
2018-05-10T10:48:09.029Z,2278.13
2018-05-10T10:49:09.024Z,2216.25
2018-05-10T10:50:09.013Z,2300.63
2018-05-10T10:51:09.004Z,2013.75
2018-05-10T10:52:08.994Z,2143.13
2018-05-10T10:53:08.986Z,2632.50
2018-05-10T10:54:08.978Z,2694.38
2018-05-10T10:55:08.971Z,4117.50
2018-05-10T10:56:08.958Z,4314.38
2018-05-10T10:57:08.951Z,4370.63
2018-05-10T10:58:08.939Z,4128.75
2018-05-10T10:59:08.930Z,3993.75
2018-05-10T11:00:08.920Z,4111.88
2018-05-10T11:01:08.912Z,4111.88
2018-05-10T11:02:08.903Z,4196.25
2018-05-10T11:03:08.895Z,4280.63
2018-05-10T11:04:08.885Z,4320.00
2018-05-10T11:05:08.877Z,3673.13
2018-05-10T11:06:08.872Z,4089.38
2018-05-10T11:07:08.862Z,3605.63
2018-05-10T11:08:08.852Z,3751.88
2018-05-10T11:09:08.922Z,3892.50
2018-05-10T11:10:08.837Z,4134.38
2018-05-10T11:11:08.832Z,4134.38
2018-05-10T11:12:08.820Z,4156.88
2018-05-10T11:13:08.812Z,4336.88
2018-05-10T11:14:08.809Z,4185.00
2018-05-10T11:15:08.827Z,4033.13
2018-05-10T11:16:08.789Z,4044.38
2018-05-10T11:17:08.782Z,3993.75
2018-05-10T11:18:08.778Z,3667.50
2018-05-10T11:19:08.768Z,3943.13
2018-05-10T11:20:08.764Z,4134.38
2018-05-10T11:21:08.755Z,3763.13
2018-05-10T11:22:08.746Z,3881.25
2018-05-10T11:23:08.749Z,3988.13
2018-05-10T11:24:08.734Z,1417.50
2018-05-10T11:25:08.726Z,1248.75
2018-05-10T11:26:08.719Z,1012.50
2018-05-10T11:27:08.717Z,939.38
2018-05-10T11:28:08.705Z,916.88
2018-05-10T11:29:08.702Z,961.88
2018-05-10T11:30:08.688Z,1153.13
2018-05-10T11:31:08.683Z,1175.63
2018-05-10T11:32:08.671Z,1209.38
2018-05-10T11:33:08.695Z,1248.75
2018-05-10T11:34:08.652Z,1265.63
2018-05-10T11:35:08.645Z,1226.25
2018-05-10T11:36:08.657Z,1411.88
2018-05-10T11:37:08.623Z,3313.13
2018-05-10T11:38:08.611Z,1513.13
2018-05-10T11:39:08.630Z,1327.50
2018-05-10T11:40:08.588Z,1305.00
2018-05-10T11:41:08.579Z,1237.50
2018-05-10T11:42:08.566Z,1226.25
2018-05-10T11:43:08.564Z,1215.00
2018-05-10T11:44:08.542Z,1198.13
2018-05-10T11:45:08.530Z,1158.75
2018-05-10T11:46:08.518Z,1096.88
2018-05-10T11:47:08.506Z,1096.88
2018-05-10T11:48:08.496Z,1051.88
2018-05-10T11:49:08.482Z,1023.75
2018-05-10T11:50:08.472Z,888.75
2018-05-10T11:51:08.456Z,781.88
2018-05-10T11:52:08.441Z,725.63
2018-05-10T11:53:08.428Z,731.25
2018-05-10T11:54:08.617Z,731.25
2018-05-10T11:55:08.608Z,770.63
2018-05-10T11:56:08.397Z,810.00
2018-05-10T11:57:08.383Z,798.75
2018-05-10T11:58:08.361Z,765.00
2018-05-10T11:59:08.347Z,815.63
2018-05-10T12:00:08.331Z,877.50
2018-05-10T12:01:08.317Z,950.63
2018-05-10T12:02:08.510Z,1018.13
2018-05-10T12:03:08.289Z,1063.13
2018-05-10T12:04:08.274Z,1327.50
2018-05-10T12:05:08.260Z,1254.38
2018-05-10T12:06:08.272Z,1355.63
2018-05-10T12:07:08.437Z,1473.75
2018-05-10T12:08:08.217Z,1715.63
2018-05-10T12:09:08.203Z,3178.13
2018-05-10T12:10:08.190Z,3031.88
2018-05-10T12:11:08.174Z,4117.50
2018-05-10T12:12:08.158Z,3735.00
2018-05-10T12:13:08.145Z,1996.88
2018-05-10T12:14:08.133Z,1873.13
2018-05-10T12:15:08.118Z,1693.13
2018-05-10T12:16:08.105Z,1507.50
2018-05-10T12:17:08.089Z,1316.25
2018-05-10T12:18:08.075Z,1192.50
2018-05-10T12:19:08.097Z,1102.50
2018-05-10T12:20:08.046Z,1085.63
2018-05-10T12:21:08.034Z,1181.25
2018-05-10T12:22:08.020Z,1220.63
2018-05-10T12:23:08.006Z,1125.00
2018-05-10T12:24:07.990Z,1074.38
2018-05-10T12:25:07.976Z,1040.63
2018-05-10T12:26:07.961Z,1029.38
2018-05-10T12:27:07.951Z,1051.88
2018-05-10T12:28:07.936Z,1102.50
2018-05-10T12:29:07.920Z,1130.63
2018-05-10T12:30:07.904Z,1136.25